Meteo Giornale » Osservazioni meteo Slovenia » Maribor-Slivnica

ore: 00:30 - Osservazioni Meteo Maribor-Slivnica
Lat. 46° 29' N Lon. 15° 41' E Alt. 264 metri s.l.m.

sereno Europe/Ljubljana

15 °C

Sereno

Temp. 24 Ore

15 °C

27 °C

Nord

1.8 Km/h

Dew point 14 °C

Umidità 93 %

Visibilità  10 Km

Il sole sorge alle ore 05:27

Il sole tramonta alle ore 20:40

Data e Ora Cielo e Fenomeni T °C DP °C Um. % Pres. hPa Vis. km Vento km/h
Oggi h: 00:30 sereno Sereno 15 14 93 1017 10 N 1.8
Oggi h: 00:00 sereno Sereno 16 14 87 1017 10 N 3.7
Ieri h: 23:30 sereno Sereno 15 15 100 1017 10 N 1.8
Ieri h: 23:00 sereno Sereno 16 15 93 1017 10 N 3.7
Ieri h: 22:30 sereno Sereno 17 15 88 1017 10 N 1.8
Ieri h: 21:30 sereno Sereno 18 16 88 1017 10 N 0
Ieri h: 20:30 sereno Sereno 20 16 77 1016 10 N 1.8
Ieri h: 19:30 sereno Sereno 23 14 56 1016 10 N 5.5
Ieri h: 19:00 poco_nuvoloso Poco Nuvoloso 23 12 49 1016 10 N 3.7
Ieri h: 18:30 nuvoloso Nuvoloso 23 12 49 1016 10 SO 7.4
Ieri h: 18:00 nuvoloso Nuvoloso 22 14 60 1016 10 SO 7.4
Ieri h: 17:30 poco_nuvoloso Poco Nuvoloso 21 15 68 1017 10 S 7.4
Ieri h: 17:00 poco_nuvoloso Poco Nuvoloso 21 14 64 1017 10 SE 7.4
Ieri h: 16:30 poco_nuvoloso Poco Nuvoloso 21 13 60 1016 10 S 7.4
Ieri h: 16:00 poco_nuvoloso Poco Nuvoloso 19 15 77 1017 10 N 3.7
Ieri h: 15:30 nuvoloso_temporali Temporale con Pioggia Debole 17 13 77 1017 10 S 7.4
Ieri h: 15:00 nuvoloso_temporali Temporale con Pioggia Debole 16 14 87 1019 8 NO 35.2
Ieri h: 14:30 nuvoloso_temporali Temporale con Pioggia Debole 25 13 47 1016 10 SO 7.4
Ieri h: 14:00 nuvoloso Nuvoloso 26 13 44 1016 10 S/SE 13
Ieri h: 13:30 poco_nuvoloso Poco Nuvoloso 27 14 44 1016 10 S 14.8
Ieri h: 13:00 poco_nuvoloso Poco Nuvoloso 26 14 47 1016 10 S/SE 11.1
Ieri h: 12:30 nuvoloso Nuvoloso 26 14 47 1017 10 S 9.3
Ieri h: 12:00 nuvoloso Nuvoloso 26 15 50 1017 10 S/SO 9.3
Ieri h: 11:30 sereno Sereno 25 15 53 1018 10 N 3.7
Ieri h: 11:00 sereno Sereno 24 15 57 1018 10 E 7.4
Ieri h: 10:30 sereno Sereno 23 15 60 1018 10 N 1.8
Ieri h: 10:00 sereno Sereno 22 15 64 1018 10 N 0
Ieri h: 09:30 sereno Sereno 21 16 73 1018 10 N 3.7
Ieri h: 09:00 sereno Sereno 21 16 73 1018 10 N 3.7
Ieri h: 08:30 sereno Sereno 20 16 77 1018 10 N 5.5
Ieri h: 08:00 sereno Sereno 19 16 82 1018 10 N 1.8
Ieri h: 07:00 sereno Sereno 18 16 88 1018 10 N 1.8
Ieri h: 06:30 sereno Sereno 16 15 93 1018 10 N 3.7
Ieri h: 06:00 sereno Sereno 16 14 87 1018 10 N 3.7
Ieri h: 05:30 sereno Sereno 16 15 93 1018 10 N 3.7
Ieri h: 05:00 sereno Sereno 16 14 87 1018 10 N 1.8
Ieri h: 04:30 sereno Sereno 16 15 93 1018 10 N 0
Ieri h: 04:00 sereno Sereno 16 14 87 1018 10 N 1.8
Ieri h: 03:30 sereno Sereno 16 15 93 1018 10 N 1.8
Ieri h: 03:00 sereno Sereno 16 14 87 1019 10 N 1.8
Ieri h: 02:30 sereno Sereno 16 14 87 1019 10 N 1.8